createdAt,value
2022-12-25T00:00:47.022Z,75.50
2022-12-25T00:03:45.461Z,75.50
2022-12-25T00:06:43.292Z,75.00
2022-12-25T00:09:40.957Z,75.30
2022-12-25T00:12:38.746Z,75.80
2022-12-25T00:15:39.460Z,76.90
2022-12-25T00:18:37.244Z,77.00
2022-12-25T00:21:34.920Z,78.40
2022-12-25T00:24:32.648Z,79.30
2022-12-25T00:27:34.337Z,78.80
2022-12-25T00:30:32.101Z,78.80
2022-12-25T00:33:29.798Z,77.80
2022-12-25T00:36:27.911Z,77.90
2022-12-25T00:39:25.855Z,77.30
2022-12-25T00:42:24.458Z,77.50
2022-12-25T00:45:22.137Z,77.30
2022-12-25T00:48:19.879Z,77.50
2022-12-25T00:51:17.514Z,76.50
2022-12-25T00:54:15.251Z,75.70
2022-12-25T00:57:12.936Z,75.50
2022-12-25T01:00:11.329Z,75.40
2022-12-25T01:03:08.924Z,74.70
2022-12-25T01:06:08.510Z,75.40
2022-12-25T01:09:24.595Z,75.70
2022-12-25T01:12:22.641Z,75.90
2022-12-25T01:15:20.681Z,75.50
2022-12-25T01:18:18.918Z,74.60
2022-12-25T01:21:18.574Z,74.80
2022-12-25T01:24:16.304Z,74.70
2022-12-25T01:27:13.943Z,74.70
2022-12-25T01:30:12.387Z,74.60
2022-12-25T01:33:10.061Z,74.90
2022-12-25T01:36:21.973Z,76.10
2022-12-25T01:39:19.731Z,78.00
2022-12-25T01:42:20.195Z,77.60
2022-12-25T01:45:36.173Z,76.80
2022-12-25T01:48:37.707Z,76.30
2022-12-25T01:51:41.765Z,76.10
2022-12-25T01:54:44.082Z,75.90
2022-12-25T01:57:43.635Z,76.30
2022-12-25T02:00:41.442Z,74.70
2022-12-25T02:03:42.812Z,75.30
2022-12-25T02:06:40.653Z,74.60
2022-12-25T02:09:38.745Z,74.90
2022-12-25T02:12:37.714Z,75.10
2022-12-25T02:15:46.668Z,75.40
2022-12-25T02:18:58.227Z,75.00
2022-12-25T02:22:36.951Z,74.70
2022-12-25T02:25:58.927Z,75.00
2022-12-25T02:29:04.811Z,75.10
2022-12-25T02:32:23.588Z,75.10
2022-12-25T02:35:33.746Z,75.40
2022-12-25T02:39:04.946Z,75.70
2022-12-25T02:42:07.800Z,76.60
2022-12-25T02:45:25.006Z,76.40
2022-12-25T02:48:43.587Z,76.00
2022-12-25T02:52:17.485Z,76.20
2022-12-25T02:55:45.589Z,75.90
2022-12-25T02:59:04.147Z,76.80
2022-12-25T03:02:21.749Z,77.30
2022-12-25T03:05:42.651Z,76.50
2022-12-25T03:08:43.437Z,75.80
2022-12-25T03:11:41.166Z,76.40
2022-12-25T03:14:58.237Z,76.20
2022-12-25T03:17:59.354Z,75.20
2022-12-25T03:21:15.561Z,76.30
2022-12-25T03:24:31.763Z,76.50
2022-12-25T03:27:33.933Z,76.00
2022-12-25T03:31:06.531Z,75.80
2022-12-25T03:34:39.584Z,75.20
2022-12-25T03:38:30.678Z,74.90
2022-12-25T03:42:10.172Z,74.80
2022-12-25T03:45:40.273Z,74.10
2022-12-25T03:49:01.412Z,74.20
2022-12-25T03:52:20.472Z,74.70
2022-12-25T03:55:38.265Z,74.20
2022-12-25T03:58:54.940Z,75.00
2022-12-25T04:02:11.883Z,74.70
2022-12-25T04:05:45.031Z,75.40
2022-12-25T04:09:01.210Z,75.50
2022-12-25T04:12:17.071Z,74.80
2022-12-25T04:15:33.305Z,74.80
2022-12-25T04:18:49.485Z,74.40
2022-12-25T04:22:05.584Z,75.10
2022-12-25T04:25:21.663Z,74.80
2022-12-25T04:28:37.635Z,74.60
2022-12-25T04:31:54.031Z,74.60
2022-12-25T04:35:10.052Z,74.60
2022-12-25T04:38:07.720Z,74.90
2022-12-25T04:41:05.778Z,75.00
2022-12-25T04:44:03.992Z,74.60
2022-12-25T04:47:05.857Z,74.50
2022-12-25T04:50:07.756Z,74.20
2022-12-25T04:53:05.380Z,73.60
2022-12-25T04:56:03.460Z,73.60
2022-12-25T04:59:01.262Z,73.60
2022-12-25T05:01:59.044Z,73.30
2022-12-25T05:04:56.801Z,73.00
2022-12-25T05:07:54.588Z,72.70
2022-12-25T05:10:52.223Z,72.60
2022-12-25T05:13:50.011Z,73.30
2022-12-25T05:16:47.761Z,72.00
2022-12-25T05:19:45.502Z,71.90
2022-12-25T05:22:44.012Z,71.40
2022-12-25T05:25:42.011Z,71.60
2022-12-25T05:28:39.733Z,71.30
2022-12-25T05:31:37.689Z,71.60
2022-12-25T05:34:35.370Z,71.30
2022-12-25T05:37:33.222Z,71.50
2022-12-25T05:40:31.070Z,71.30
2022-12-25T05:43:29.650Z,70.70
2022-12-25T05:46:27.377Z,70.20
2022-12-25T05:49:25.563Z,70.20
2022-12-25T05:52:23.252Z,70.40
2022-12-25T05:55:21.258Z,70.30
2022-12-25T05:58:18.936Z,70.50
2022-12-25T06:01:20.526Z,70.60
2022-12-25T06:04:18.240Z,70.50
2022-12-25T06:07:16.018Z,69.50
2022-12-25T06:10:14.397Z,69.50
2022-12-25T06:13:12.138Z,68.90
2022-12-25T06:16:12.197Z,69.20
2022-12-25T06:19:10.055Z,69.70
2022-12-25T06:22:07.651Z,70.20
2022-12-25T06:25:05.737Z,70.30
2022-12-25T06:28:03.423Z,70.00
2022-12-25T06:31:10.412Z,70.30
2022-12-25T06:34:08.170Z,70.30
2022-12-25T06:37:06.013Z,72.30
2022-12-25T06:40:03.737Z,71.00
2022-12-25T06:43:01.475Z,70.30
2022-12-25T06:46:04.273Z,69.90
2022-12-25T06:49:02.143Z,72.40
2022-12-25T06:51:59.836Z,73.20
2022-12-25T06:54:58.500Z,72.20
2022-12-25T06:57:56.184Z,72.70
2022-12-25T07:00:54.213Z,72.50
2022-12-25T07:03:56.347Z,71.50
2022-12-25T07:06:54.205Z,71.10
2022-12-25T07:09:51.816Z,70.70
2022-12-25T07:12:49.705Z,70.50
2022-12-25T07:15:48.062Z,69.90
2022-12-25T07:18:45.946Z,69.90
2022-12-25T07:21:43.556Z,70.30
2022-12-25T07:24:41.351Z,70.80
2022-12-25T07:27:38.995Z,70.20
2022-12-25T07:30:38.224Z,70.40
2022-12-25T07:33:36.605Z,71.40
2022-12-25T07:36:34.299Z,72.80
2022-12-25T07:39:32.203Z,74.20
2022-12-25T07:42:29.972Z,74.20
2022-12-25T07:45:27.880Z,74.10
2022-12-25T07:48:26.933Z,73.60
2022-12-25T07:51:24.603Z,71.60
2022-12-25T07:54:22.410Z,72.90
2022-12-25T07:57:20.003Z,72.00
2022-12-25T08:00:18.382Z,71.00
2022-12-25T08:03:17.356Z,70.30
2022-12-25T08:06:15.545Z,70.00
2022-12-25T08:09:13.815Z,69.50
2022-12-25T08:12:11.737Z,69.90
2022-12-25T08:15:09.782Z,69.30
2022-12-25T08:18:07.525Z,68.90
2022-12-25T08:21:10.183Z,69.30
2022-12-25T08:24:08.142Z,68.70
2022-12-25T08:27:06.346Z,69.20
2022-12-25T08:30:04.514Z,69.20
2022-12-25T08:33:02.481Z,70.80
2022-12-25T08:36:11.553Z,70.10
2022-12-25T08:39:09.724Z,70.20
2022-12-25T08:42:07.463Z,71.00
2022-12-25T08:45:05.850Z,69.30
2022-12-25T08:48:03.634Z,69.00
2022-12-25T08:51:02.055Z,69.30
2022-12-25T08:54:01.595Z,69.20
2022-12-25T08:57:03.050Z,69.80
2022-12-25T09:00:01.040Z,69.60
2022-12-25T09:02:58.809Z,69.50
2022-12-25T09:05:56.631Z,70.40
2022-12-25T09:08:54.314Z,69.70
2022-12-25T09:11:52.199Z,70.80
2022-12-25T09:14:49.925Z,70.40
2022-12-25T09:17:47.760Z,71.50
2022-12-25T09:20:45.445Z,73.10
2022-12-25T09:23:43.567Z,71.00
2022-12-25T09:26:41.257Z,72.80
2022-12-25T09:29:39.630Z,71.70
2022-12-25T09:32:37.504Z,71.20
2022-12-25T09:35:35.501Z,70.60
2022-12-25T09:38:33.713Z,70.40
2022-12-25T09:41:36.177Z,70.30
2022-12-25T09:44:42.954Z,70.60
2022-12-25T09:47:44.400Z,70.70
2022-12-25T09:50:51.706Z,70.70
2022-12-25T09:53:55.850Z,70.60
2022-12-25T09:56:53.545Z,70.80
2022-12-25T09:59:56.555Z,70.60
2022-12-25T10:03:14.841Z,70.80
2022-12-25T10:06:18.302Z,70.80
2022-12-25T10:09:24.767Z,70.20
2022-12-25T10:12:31.358Z,70.30
2022-12-25T10:16:01.041Z,70.60
2022-12-25T10:19:17.730Z,71.50
2022-12-25T10:22:23.007Z,71.80
2022-12-25T10:25:25.560Z,72.40
2022-12-25T10:28:34.394Z,71.30
2022-12-25T10:31:37.609Z,72.20
2022-12-25T10:34:37.735Z,72.90
2022-12-25T10:37:35.429Z,72.70
2022-12-25T10:40:39.578Z,72.30
2022-12-25T10:43:46.129Z,74.30
2022-12-25T10:46:49.869Z,74.80
2022-12-25T10:49:47.921Z,73.70
2022-12-25T10:53:18.736Z,73.70
2022-12-25T10:56:19.982Z,73.30
2022-12-25T10:59:17.747Z,72.90
2022-12-25T11:02:24.788Z,72.80
2022-12-25T11:05:29.667Z,73.10
2022-12-25T11:08:30.247Z,73.30
2022-12-25T11:11:30.251Z,73.60
2022-12-25T11:14:29.961Z,74.00
2022-12-25T11:17:28.410Z,74.20
2022-12-25T11:20:26.589Z,74.10
2022-12-25T11:23:26.125Z,73.90
2022-12-25T11:26:24.105Z,73.80
2022-12-25T11:29:33.813Z,74.90
2022-12-25T11:32:55.923Z,75.60
2022-12-25T11:35:56.144Z,75.50
2022-12-25T11:38:53.974Z,74.80
2022-12-25T11:42:49.189Z,75.00
2022-12-25T11:45:54.747Z,75.20
2022-12-25T11:49:01.241Z,75.60
2022-12-25T11:51:59.182Z,75.20
2022-12-25T11:55:04.928Z,75.40
2022-12-25T11:58:14.664Z,76.10
2022-12-25T12:01:33.383Z,76.10
2022-12-25T12:04:42.989Z,75.20
2022-12-25T12:07:54.175Z,75.10
2022-12-25T12:11:16.912Z,74.80
2022-12-25T12:14:26.004Z,74.70
2022-12-25T12:17:24.046Z,74.70
2022-12-25T12:20:31.447Z,75.00
2022-12-25T12:23:32.064Z,75.00
2022-12-25T12:26:32.512Z,75.40
2022-12-25T12:29:38.369Z,75.70
2022-12-25T12:32:43.872Z,75.80
2022-12-25T12:35:41.960Z,76.30
2022-12-25T12:38:41.715Z,75.90
2022-12-25T12:41:47.273Z,76.50
2022-12-25T12:44:48.547Z,76.00
2022-12-25T12:47:50.018Z,75.80
2022-12-25T12:50:48.006Z,76.00
2022-12-25T12:53:46.177Z,76.10
2022-12-25T12:56:54.977Z,75.70
2022-12-25T12:59:52.994Z,75.50
2022-12-25T13:03:23.621Z,75.30
2022-12-25T13:06:30.357Z,75.30
2022-12-25T13:09:55.847Z,75.30
2022-12-25T13:12:57.540Z,75.10
2022-12-25T13:15:56.569Z,75.10
2022-12-25T13:18:56.437Z,75.30
2022-12-25T13:22:04.253Z,75.30
2022-12-25T13:25:06.054Z,75.30
2022-12-25T13:28:05.389Z,76.10
2022-12-25T13:31:24.840Z,75.50
2022-12-25T13:34:34.782Z,75.10
2022-12-25T13:37:32.838Z,75.10
2022-12-25T13:40:30.794Z,75.20
2022-12-25T13:43:30.514Z,75.70
2022-12-25T13:46:28.875Z,76.00
2022-12-25T13:49:27.617Z,76.30
2022-12-25T13:52:40.664Z,76.40
2022-12-25T13:55:38.712Z,76.70
2022-12-25T13:58:37.649Z,76.40
2022-12-25T14:01:35.925Z,77.10
2022-12-25T14:04:44.031Z,77.90
2022-12-25T14:07:41.913Z,77.20
2022-12-25T14:10:41.518Z,77.00
2022-12-25T14:13:43.627Z,76.30
2022-12-25T14:16:44.057Z,76.50
2022-12-25T14:19:42.142Z,76.10
2022-12-25T14:22:41.878Z,76.50
2022-12-25T14:25:45.237Z,76.70
2022-12-25T14:28:43.001Z,76.50
2022-12-25T14:31:41.569Z,76.40
2022-12-25T14:34:39.430Z,76.80
2022-12-25T14:37:39.032Z,76.70
2022-12-25T14:40:37.015Z,76.90
2022-12-25T14:43:36.987Z,76.90
2022-12-25T14:46:36.060Z,76.70
2022-12-25T14:49:34.294Z,76.80
2022-12-25T14:52:43.843Z,77.30
2022-12-25T14:55:47.771Z,77.60
2022-12-25T14:58:51.959Z,78.10
2022-12-25T15:02:02.031Z,77.90
2022-12-25T15:05:00.217Z,77.20
2022-12-25T15:08:03.033Z,77.10
2022-12-25T15:11:03.213Z,77.10
2022-12-25T15:14:01.866Z,77.20
2022-12-25T15:17:02.334Z,77.40
2022-12-25T15:20:02.029Z,77.70
2022-12-25T15:23:18.845Z,77.30
2022-12-25T15:26:17.616Z,77.20
2022-12-25T15:29:15.521Z,76.90
2022-12-25T15:32:19.963Z,76.90
2022-12-25T15:35:21.771Z,76.80
2022-12-25T15:38:19.777Z,77.20
2022-12-25T15:41:37.988Z,77.10
2022-12-25T15:44:35.969Z,77.20
2022-12-25T15:47:34.062Z,77.70
2022-12-25T15:50:33.413Z,79.00
2022-12-25T15:53:31.322Z,79.50
2022-12-25T15:56:29.771Z,79.10
2022-12-25T15:59:27.806Z,78.20
2022-12-25T16:02:26.200Z,79.20
2022-12-25T16:05:24.421Z,79.30
2022-12-25T16:08:22.782Z,78.90
2022-12-25T16:11:20.741Z,78.50
2022-12-25T16:14:20.195Z,79.50
2022-12-25T16:17:18.106Z,79.20
2022-12-25T16:20:16.164Z,79.00
2022-12-25T16:23:14.417Z,78.40
2022-12-25T16:26:12.503Z,77.80
2022-12-25T16:29:10.970Z,77.50
2022-12-25T16:32:12.391Z,77.00
2022-12-25T16:35:11.893Z,76.80
2022-12-25T16:38:10.040Z,76.80
2022-12-25T16:41:09.770Z,77.10
2022-12-25T16:44:10.905Z,76.80
2022-12-25T16:47:18.247Z,76.90
2022-12-25T16:50:17.038Z,77.90
2022-12-25T16:53:14.962Z,77.30
2022-12-25T16:56:15.432Z,77.30
2022-12-25T16:59:13.185Z,78.40
2022-12-25T17:02:19.934Z,78.50
2022-12-25T17:05:17.899Z,78.50
2022-12-25T17:08:15.880Z,78.60
2022-12-25T17:11:14.679Z,78.50
2022-12-25T17:14:12.734Z,77.50
2022-12-25T17:17:10.820Z,77.50
2022-12-25T17:20:09.606Z,78.90
2022-12-25T17:23:07.404Z,77.60
2022-12-25T17:26:06.289Z,77.30
2022-12-25T17:29:04.606Z,78.00
2022-12-25T17:32:02.622Z,79.00
2022-12-25T17:35:00.421Z,78.20
2022-12-25T17:37:58.438Z,77.70
2022-12-25T17:40:58.911Z,77.40
2022-12-25T17:43:57.009Z,77.60
2022-12-25T17:46:54.880Z,77.60
2022-12-25T17:49:52.789Z,78.20
2022-12-25T17:52:50.592Z,78.40
2022-12-25T17:55:48.759Z,78.60
2022-12-25T17:58:52.130Z,78.90
2022-12-25T18:01:49.914Z,77.30
2022-12-25T18:04:48.644Z,77.10
2022-12-25T18:07:46.532Z,77.30
2022-12-25T18:10:44.977Z,77.80
2022-12-25T18:13:45.779Z,77.80
2022-12-25T18:16:46.037Z,76.90
2022-12-25T18:19:44.134Z,77.40
2022-12-25T18:22:42.004Z,77.50
2022-12-25T18:25:43.676Z,77.00
2022-12-25T18:28:43.270Z,78.10
2022-12-25T18:31:41.698Z,78.30
2022-12-25T18:34:39.880Z,77.30
2022-12-25T18:37:40.244Z,77.70
2022-12-25T18:40:44.326Z,77.70
2022-12-25T18:43:52.455Z,77.20
2022-12-25T18:46:53.453Z,76.90
2022-12-25T18:49:51.886Z,77.10
2022-12-25T18:52:51.600Z,77.90
2022-12-25T18:55:50.446Z,78.30
2022-12-25T18:58:48.795Z,78.70
2022-12-25T19:01:47.319Z,79.30
2022-12-25T19:04:45.605Z,80.10
2022-12-25T19:07:44.111Z,80.10
2022-12-25T19:10:42.951Z,79.80
2022-12-25T19:13:41.795Z,79.00
2022-12-25T19:16:39.940Z,78.60
2022-12-25T19:19:40.421Z,77.90
2022-12-25T19:22:38.744Z,77.50
2022-12-25T19:25:39.669Z,78.30
2022-12-25T19:28:38.642Z,77.40
2022-12-25T19:31:38.783Z,77.50
2022-12-25T19:34:36.949Z,77.40
2022-12-25T19:37:35.160Z,77.90
2022-12-25T19:40:36.829Z,78.00
2022-12-25T19:43:38.077Z,77.30
2022-12-25T19:46:39.037Z,78.80
2022-12-25T19:49:37.472Z,78.90
2022-12-25T19:52:35.845Z,76.70
2022-12-25T19:55:34.025Z,77.60
2022-12-25T19:58:32.219Z,76.70
2022-12-25T20:01:31.475Z,76.80
2022-12-25T20:04:29.834Z,77.40
2022-12-25T20:07:28.045Z,78.40
2022-12-25T20:10:26.157Z,77.50
2022-12-25T20:13:24.426Z,77.90
2022-12-25T20:16:23.287Z,77.40
2022-12-25T20:19:21.470Z,77.00
2022-12-25T20:22:19.864Z,76.90
2022-12-25T20:25:18.184Z,77.60
2022-12-25T20:28:16.379Z,77.20
2022-12-25T20:31:21.828Z,76.40
2022-12-25T20:34:19.919Z,78.00
2022-12-25T20:37:18.085Z,77.20
2022-12-25T20:40:16.354Z,78.10
2022-12-25T20:43:14.587Z,77.00
2022-12-25T20:46:13.904Z,75.90
2022-12-25T20:49:12.211Z,76.10
2022-12-25T20:52:10.229Z,75.90
2022-12-25T20:55:08.748Z,76.10
2022-12-25T20:58:06.791Z,76.80
2022-12-25T21:01:11.205Z,76.40
2022-12-25T21:04:14.443Z,76.50
2022-12-25T21:07:14.316Z,76.50
2022-12-25T21:10:12.414Z,77.00
2022-12-25T21:13:10.715Z,76.90
2022-12-25T21:16:13.580Z,77.20
2022-12-25T21:19:12.179Z,78.00
2022-12-25T21:22:10.298Z,77.40
2022-12-25T21:25:08.870Z,77.30
2022-12-25T21:28:07.025Z,77.70
2022-12-25T21:31:07.058Z,77.40
2022-12-25T21:34:05.111Z,76.20
2022-12-25T21:37:03.314Z,76.30
2022-12-25T21:40:01.407Z,76.20
2022-12-25T21:43:01.272Z,76.50
2022-12-25T21:46:03.810Z,76.70
2022-12-25T21:49:02.101Z,76.00
2022-12-25T21:52:15.505Z,76.50
2022-12-25T21:55:15.485Z,75.90
2022-12-25T21:58:13.550Z,76.80
2022-12-25T22:01:12.530Z,76.10
2022-12-25T22:04:11.004Z,76.90
2022-12-25T22:07:20.675Z,79.00
2022-12-25T22:10:18.824Z,77.80
2022-12-25T22:13:32.443Z,78.60
2022-12-25T22:16:45.875Z,77.70
2022-12-25T22:19:45.287Z,77.70
2022-12-25T22:22:44.093Z,78.30
2022-12-25T22:25:42.324Z,78.40
2022-12-25T22:28:40.521Z,78.60
2022-12-25T22:31:44.701Z,78.30
2022-12-25T22:34:45.197Z,77.90
2022-12-25T22:37:43.976Z,77.40
2022-12-25T22:40:42.093Z,77.30
2022-12-25T22:44:15.400Z,77.20
2022-12-25T22:46:59.102Z,76.70
2022-12-25T22:49:57.544Z,77.20
2022-12-25T22:52:55.610Z,77.70
2022-12-25T22:55:53.814Z,77.70
2022-12-25T22:58:51.865Z,78.30
2022-12-25T23:01:51.231Z,77.40
2022-12-25T23:04:50.000Z,75.90
2022-12-25T23:07:48.381Z,76.10
2022-12-25T23:10:46.487Z,78.20
2022-12-25T23:14:00.055Z,77.20
2022-12-25T23:16:59.537Z,75.80
2022-12-25T23:20:15.320Z,75.40
2022-12-25T23:23:32.022Z,75.30
2022-12-25T23:26:30.200Z,75.30
2022-12-25T23:29:43.853Z,75.10
2022-12-25T23:32:42.980Z,75.50
2022-12-25T23:35:41.238Z,75.90
2022-12-25T23:38:39.459Z,75.90
2022-12-25T23:41:38.306Z,77.70
2022-12-25T23:44:36.803Z,77.10
2022-12-25T23:47:34.857Z,76.30
2022-12-25T23:50:33.284Z,76.20
2022-12-25T23:53:31.845Z,75.90
2022-12-25T23:56:30.203Z,75.50
2022-12-25T23:59:30.879Z,76.70
